sensor_id;sensor_type;location;lat;lon;timestamp;pressure;altitude;pressure_sealevel;temperature;humidity
60337;BME280;46978;50.288;28.624;2023-05-16T00:00:33;98820.42;;;15.43;47.73
60337;BME280;46978;50.288;28.624;2023-05-16T00:01:35;98822.16;;;15.42;47.70
60337;BME280;46978;50.288;28.624;2023-05-16T00:02:37;98823.03;;;15.43;47.83
60337;BME280;46978;50.288;28.624;2023-05-16T00:03:38;98817.00;;;15.41;47.77
60337;BME280;46978;50.288;28.624;2023-05-16T00:04:40;98819.63;;;15.41;47.79
60337;BME280;46978;50.288;28.624;2023-05-16T00:05:42;98811.84;;;15.39;47.77
60337;BME280;46978;50.288;28.624;2023-05-16T00:06:43;98811.92;;;15.38;47.61
60337;BME280;46978;50.288;28.624;2023-05-16T00:07:46;98813.63;;;15.39;47.52
60337;BME280;46978;50.288;28.624;2023-05-16T00:08:48;98809.30;;;15.38;47.64
60337;BME280;46978;50.288;28.624;2023-05-16T00:09:50;98813.70;;;15.37;47.58
60337;BME280;46978;50.288;28.624;2023-05-16T00:10:52;98814.61;;;15.36;47.56
60337;BME280;46978;50.288;28.624;2023-05-16T00:11:53;98810.25;;;15.37;47.69
60337;BME280;46978;50.288;28.624;2023-05-16T00:12:55;98809.38;;;15.36;47.67
60337;BME280;46978;50.288;28.624;2023-05-16T00:13:56;98811.16;;;15.36;47.88
60337;BME280;46978;50.288;28.624;2023-05-16T00:14:58;98810.32;;;15.35;48.07
60337;BME280;46978;50.288;28.624;2023-05-16T00:15:59;98805.16;;;15.34;47.95
60337;BME280;46978;50.288;28.624;2023-05-16T00:17:21;98807.77;;;15.34;47.79
60337;BME280;46978;50.288;28.624;2023-05-16T00:18:22;98813.08;;;15.32;47.82
60337;BME280;46978;50.288;28.624;2023-05-16T00:19:24;98807.91;;;15.31;47.84
60337;BME280;46978;50.288;28.624;2023-05-16T00:20:26;98808.75;;;15.31;47.75
60337;BME280;46978;50.288;28.624;2023-05-16T00:21:28;98807.91;;;15.31;47.53
60337;BME280;46978;50.288;28.624;2023-05-16T00:22:29;98803.67;;;15.28;47.77
60337;BME280;46978;50.288;28.624;2023-05-16T00:23:31;98803.67;;;15.28;47.76
60337;BME280;46978;50.288;28.624;2023-05-16T00:24:33;98799.34;;;15.27;47.87
60337;BME280;46978;50.288;28.624;2023-05-16T00:25:35;98798.52;;;15.27;47.86
60337;BME280;46978;50.288;28.624;2023-05-16T00:26:37;98799.42;;;15.26;47.81
60337;BME280;46978;50.288;28.624;2023-05-16T00:27:38;98795.13;;;15.24;47.68
60337;BME280;46978;50.288;28.624;2023-05-16T00:28:40;98793.36;;;15.25;47.74
60337;BME280;46978;50.288;28.624;2023-05-16T00:29:42;98789.98;;;15.23;47.70
60337;BME280;46978;50.288;28.624;2023-05-16T00:30:44;98795.27;;;15.21;47.50
60337;BME280;46978;50.288;28.624;2023-05-16T00:31:46;98789.17;;;15.21;47.55
60337;BME280;46978;50.288;28.624;2023-05-16T00:32:47;98789.25;;;15.19;46.99
60337;BME280;46978;50.288;28.624;2023-05-16T00:33:49;98789.25;;;15.19;46.99
60337;BME280;46978;50.288;28.624;2023-05-16T00:34:51;98785.80;;;15.19;47.59
60337;BME280;46978;50.288;28.624;2023-05-16T00:35:52;98787.58;;;15.18;47.61
60337;BME280;46978;50.288;28.624;2023-05-16T00:36:54;98787.64;;;15.17;47.46
60337;BME280;46978;50.288;28.624;2023-05-16T00:37:55;98781.63;;;15.15;47.54
60337;BME280;46978;50.288;28.624;2023-05-16T00:38:57;98782.48;;;15.15;47.52
60337;BME280;46978;50.288;28.624;2023-05-16T00:39:58;98776.47;;;15.13;47.50
60337;BME280;46978;50.288;28.624;2023-05-16T00:41:00;98770.41;;;15.13;47.57
60337;BME280;46978;50.288;28.624;2023-05-16T00:42:02;98770.47;;;15.11;47.60
60337;BME280;46978;50.288;28.624;2023-05-16T00:43:04;98776.61;;;15.10;47.55
60337;BME280;46978;50.288;28.624;2023-05-16T00:44:05;98772.32;;;15.09;47.44
60337;BME280;46978;50.288;28.624;2023-05-16T00:45:08;98768.00;;;15.08;47.75
60337;BME280;46978;50.288;28.624;2023-05-16T00:46:10;98768.07;;;15.06;47.76
60337;BME280;46978;50.288;28.624;2023-05-16T00:47:12;98763.83;;;15.04;47.94
60337;BME280;46978;50.288;28.624;2023-05-16T00:48:14;98763.83;;;15.04;47.86
60337;BME280;46978;50.288;28.624;2023-05-16T00:49:16;98767.38;;;15.03;47.77
60337;BME280;46978;50.288;28.624;2023-05-16T00:50:18;98760.45;;;15.02;47.74
60337;BME280;46978;50.288;28.624;2023-05-16T00:51:20;98763.97;;;15.01;47.80
60337;BME280;46978;50.288;28.624;2023-05-16T00:52:22;98764.91;;;15.00;47.82
60337;BME280;46978;50.288;28.624;2023-05-16T00:53:24;98765.81;;;14.99;47.92
60337;BME280;46978;50.288;28.624;2023-05-16T00:54:26;98771.03;;;14.99;47.97
60337;BME280;46978;50.288;28.624;2023-05-16T00:55:28;98769.41;;;14.96;47.91
60337;BME280;46978;50.288;28.624;2023-05-16T00:56:29;98765.12;;;14.95;48.03
60337;BME280;46978;50.288;28.624;2023-05-16T00:57:31;98768.56;;;14.96;48.04
60337;BME280;46978;50.288;28.624;2023-05-16T00:58:33;98762.58;;;14.94;48.14
60337;BME280;46978;50.288;28.624;2023-05-16T00:59:35;98759.09;;;14.93;48.22
60337;BME280;46978;50.288;28.624;2023-05-16T01:00:37;98766.09;;;14.93;48.34
60337;BME280;46978;50.288;28.624;2023-05-16T01:01:40;98763.55;;;14.91;48.27
60337;BME280;46978;50.288;28.624;2023-05-16T01:02:42;98760.10;;;14.91;48.20
60337;BME280;46978;50.288;28.624;2023-05-16T01:03:44;98760.17;;;14.89;48.41
60337;BME280;46978;50.288;28.624;2023-05-16T01:04:46;98762.78;;;14.89;48.25
60337;BME280;46978;50.288;28.624;2023-05-16T01:05:49;98758.53;;;14.86;48.44
60337;BME280;46978;50.288;28.624;2023-05-16T01:06:51;98767.14;;;14.88;48.66
60337;BME280;46978;50.288;28.624;2023-05-16T01:07:52;98764.59;;;14.87;48.28
60337;BME280;46978;50.288;28.624;2023-05-16T01:08:53;98766.37;;;14.86;48.46
60337;BME280;46978;50.288;28.624;2023-05-16T01:09:55;98764.66;;;14.85;48.59
60337;BME280;46978;50.288;28.624;2023-05-16T01:12:15;98764.66;;;14.85;48.86
60337;BME280;46978;50.288;28.624;2023-05-16T01:14:47;98766.51;;;14.83;48.86
60337;BME280;46978;50.288;28.624;2023-05-16T01:15:59;98764.88;;;14.81;48.85
60337;BME280;46978;50.288;28.624;2023-05-16T01:17:21;98760.52;;;14.81;49.14
60337;BME280;46978;50.288;28.624;2023-05-16T01:20:55;98757.17;;;14.78;49.16
60337;BME280;46978;50.288;28.624;2023-05-16T01:22:01;98756.34;;;14.77;49.38
60337;BME280;46978;50.288;28.624;2023-05-16T01:24:35;98753.80;;;14.76;49.23
60337;BME280;46978;50.288;28.624;2023-05-16T01:25:44;98753.86;;;14.74;49.44
60337;BME280;46978;50.288;28.624;2023-05-16T01:26:42;98752.16;;;14.73;49.28
60337;BME280;46978;50.288;28.624;2023-05-16T01:27:45;98759.99;;;14.73;49.44
60337;BME280;46978;50.288;28.624;2023-05-16T01:28:52;98754.84;;;14.72;49.56
60337;BME280;46978;50.288;28.624;2023-05-16T01:29:56;98762.67;;;14.72;49.43
60337;BME280;46978;50.288;28.624;2023-05-16T01:30:58;98755.84;;;14.69;49.46
60337;BME280;46978;50.288;28.624;2023-05-16T01:32:00;98759.36;;;14.68;49.59
60337;BME280;46978;50.288;28.624;2023-05-16T01:33:01;98760.20;;;14.68;49.61
60337;BME280;46978;50.288;28.624;2023-05-16T01:34:03;98763.67;;;14.69;49.63
60337;BME280;46978;50.288;28.624;2023-05-16T01:35:06;98758.45;;;14.69;49.67
60337;BME280;46978;50.288;28.624;2023-05-16T01:36:32;98764.59;;;14.68;49.75
60337;BME280;46978;50.288;28.624;2023-05-16T01:37:35;98764.66;;;14.66;49.72
60337;BME280;46978;50.288;28.624;2023-05-16T01:39:59;98761.20;;;14.66;50.01
60337;BME280;46978;50.288;28.624;2023-05-16T01:41:27;98756.89;;;14.65;50.02
60337;BME280;46978;50.288;28.624;2023-05-16T01:42:32;98759.50;;;14.65;49.88
60337;BME280;46978;50.288;28.624;2023-05-16T01:43:43;98756.95;;;14.63;50.10
60337;BME280;46978;50.288;28.624;2023-05-16T01:46:09;98755.31;;;14.61;50.25
60337;BME280;46978;50.288;28.624;2023-05-16T01:47:13;98756.22;;;14.60;50.34
60337;BME280;46978;50.288;28.624;2023-05-16T01:48:17;98756.22;;;14.60;50.96
60337;BME280;46978;50.288;28.624;2023-05-16T01:49:53;98752.81;;;14.58;50.80
60337;BME280;46978;50.288;28.624;2023-05-16T01:50:53;98755.42;;;14.58;50.76
60337;BME280;46978;50.288;28.624;2023-05-16T01:52:01;98754.65;;;14.56;50.67
60337;BME280;46978;50.288;28.624;2023-05-16T01:53:06;98754.65;;;14.56;51.01
60337;BME280;46978;50.288;28.624;2023-05-16T01:54:11;98749.50;;;14.54;50.90
60337;BME280;46978;50.288;28.624;2023-05-16T01:55:18;98746.95;;;14.52;50.81
60337;BME280;46978;50.288;28.624;2023-05-16T01:56:19;98740.89;;;14.52;50.88
60337;BME280;46978;50.288;28.624;2023-05-16T01:57:25;98743.51;;;14.52;51.07
60337;BME280;46978;50.288;28.624;2023-05-16T01:58:32;98740.03;;;14.51;51.14
60337;BME280;46978;50.288;28.624;2023-05-16T01:59:35;98730.59;;;14.49;51.10
60337;BME280;46978;50.288;28.624;2023-05-16T02:00:37;98733.20;;;14.49;51.14
60337;BME280;46978;50.288;28.624;2023-05-16T02:01:38;98729.75;;;14.48;51.33
60337;BME280;46978;50.288;28.624;2023-05-16T02:02:40;98729.82;;;14.47;51.35
60337;BME280;46978;50.288;28.624;2023-05-16T02:03:42;98724.67;;;14.45;51.61
60337;BME280;46978;50.288;28.624;2023-05-16T02:04:44;98719.52;;;14.44;51.54
60337;BME280;46978;50.288;28.624;2023-05-16T02:05:45;98713.49;;;14.42;51.44
60337;BME280;46978;50.288;28.624;2023-05-16T02:06:47;98722.27;;;14.41;51.49
60337;BME280;46978;50.288;28.624;2023-05-16T02:07:49;98728.38;;;14.40;51.71
60337;BME280;46978;50.288;28.624;2023-05-16T02:08:51;98726.61;;;14.40;51.61
60337;BME280;46978;50.288;28.624;2023-05-16T02:09:53;98721.45;;;14.39;51.52
60337;BME280;46978;50.288;28.624;2023-05-16T02:10:54;98718.08;;;14.37;51.70
60337;BME280;46978;50.288;28.624;2023-05-16T02:11:56;98718.15;;;14.35;51.88
60337;BME280;46978;50.288;28.624;2023-05-16T02:12:58;98723.44;;;14.33;51.76
60337;BME280;46978;50.288;28.624;2023-05-16T02:13:59;98719.05;;;14.34;51.51
60337;BME280;46978;50.288;28.624;2023-05-16T02:15:01;98718.21;;;14.33;51.59
60337;BME280;46978;50.288;28.624;2023-05-16T02:16:03;98709.55;;;14.33;51.50
60337;BME280;46978;50.288;28.624;2023-05-16T02:17:05;98714.77;;;14.33;51.96
60337;BME280;46978;50.288;28.624;2023-05-16T02:18:06;98714.77;;;14.33;51.96
60337;BME280;46978;50.288;28.624;2023-05-16T02:19:08;98709.55;;;14.33;51.55
60337;BME280;46978;50.288;28.624;2023-05-16T02:20:11;98715.67;;;14.32;51.71
60337;BME280;46978;50.288;28.624;2023-05-16T02:21:13;98709.69;;;14.30;51.78
60337;BME280;46978;50.288;28.624;2023-05-16T02:22:15;98709.69;;;14.30;51.83
60337;BME280;46978;50.288;28.624;2023-05-16T02:23:16;98710.59;;;14.29;51.94
60337;BME280;46978;50.288;28.624;2023-05-16T02:24:18;98706.27;;;14.28;51.74
60337;BME280;46978;50.288;28.624;2023-05-16T02:25:20;98707.14;;;14.28;51.96
60337;BME280;46978;50.288;28.624;2023-05-16T02:26:21;98715.88;;;14.27;51.80
60337;BME280;46978;50.288;28.624;2023-05-16T02:27:23;98718.55;;;14.26;52.03
60337;BME280;46978;50.288;28.624;2023-05-16T02:28:25;98721.22;;;14.24;52.06
60337;BME280;46978;50.288;28.624;2023-05-16T02:29:27;98727.28;;;14.25;52.35
60337;BME280;46978;50.288;28.624;2023-05-16T02:30:28;98730.83;;;14.24;52.68
60337;BME280;46978;50.288;28.624;2023-05-16T02:31:31;98728.28;;;14.22;52.68
60337;BME280;46978;50.288;28.624;2023-05-16T02:32:33;98734.41;;;14.21;53.01
60337;BME280;46978;50.288;28.624;2023-05-16T02:33:35;98731.86;;;14.20;53.14
60337;BME280;46978;50.288;28.624;2023-05-16T02:34:36;98739.75;;;14.18;53.15
60337;BME280;46978;50.288;28.624;2023-05-16T02:35:38;98741.53;;;14.18;53.38
60337;BME280;46978;50.288;28.624;2023-05-16T02:36:40;98748.48;;;14.17;53.67
60337;BME280;46978;50.288;28.624;2023-05-16T02:37:41;98755.61;;;14.13;53.60
60337;BME280;46978;50.288;28.624;2023-05-16T02:38:43;98755.61;;;14.13;53.60
60337;BME280;46978;50.288;28.624;2023-05-16T02:39:45;98751.30;;;14.12;54.30
60337;BME280;46978;50.288;28.624;2023-05-16T02:40:47;98756.58;;;14.11;54.22
60337;BME280;46978;50.288;28.624;2023-05-16T02:41:49;98754.90;;;14.10;54.45
60337;BME280;46978;50.288;28.624;2023-05-16T02:42:50;98754.16;;;14.06;54.47
60337;BME280;46978;50.288;28.624;2023-05-16T02:43:52;98758.54;;;14.06;55.29
60337;BME280;46978;50.288;28.624;2023-05-16T02:44:53;98763.82;;;14.04;55.64
60337;BME280;46978;50.288;28.624;2023-05-16T02:45:55;98755.22;;;14.02;55.89
60337;BME280;46978;50.288;28.624;2023-05-16T02:46:57;98759.63;;;14.00;56.59
60337;BME280;46978;50.288;28.624;2023-05-16T02:47:59;98755.48;;;13.96;57.19
60337;BME280;46978;50.288;28.624;2023-05-16T02:49:00;98759.95;;;13.92;57.18
60337;BME280;46978;50.288;28.624;2023-05-16T02:50:02;98757.47;;;13.89;57.27
60337;BME280;46978;50.288;28.624;2023-05-16T02:51:04;98750.64;;;13.87;58.22
60337;BME280;46978;50.288;28.624;2023-05-16T02:52:06;98758.59;;;13.84;57.93
60337;BME280;46978;50.288;28.624;2023-05-16T02:53:07;98755.18;;;13.81;57.33
60337;BME280;46978;50.288;28.624;2023-05-16T02:54:09;98755.31;;;13.78;57.85
60337;BME280;46978;50.288;28.624;2023-05-16T02:55:11;98751.92;;;13.76;58.02
60337;BME280;46978;50.288;28.624;2023-05-16T02:56:14;98747.67;;;13.74;58.46
60337;BME280;46978;50.288;28.624;2023-05-16T02:57:15;98758.16;;;13.72;58.79
60337;BME280;46978;50.288;28.624;2023-05-16T02:58:17;98764.38;;;13.70;58.64
60337;BME280;46978;50.288;28.624;2023-05-16T02:59:18;98754.91;;;13.67;58.46
60337;BME280;46978;50.288;28.624;2023-05-16T03:00:20;98762.73;;;13.67;58.71
60337;BME280;46978;50.288;28.624;2023-05-16T03:01:22;98768.00;;;13.66;58.48
60337;BME280;46978;50.288;28.624;2023-05-16T03:02:23;98760.25;;;13.64;58.26
60337;BME280;46978;50.288;28.624;2023-05-16T03:03:25;98763.69;;;13.65;58.44
60337;BME280;46978;50.288;28.624;2023-05-16T03:04:27;98766.36;;;13.63;58.70
60337;BME280;46978;50.288;28.624;2023-05-16T03:05:28;98767.29;;;13.62;58.54
60337;BME280;46978;50.288;28.624;2023-05-16T03:06:31;98761.20;;;13.61;58.47
60337;BME280;46978;50.288;28.624;2023-05-16T03:07:32;98762.98;;;13.61;58.53
60337;BME280;46978;50.288;28.624;2023-05-16T03:08:34;98766.48;;;13.60;58.25
60337;BME280;46978;50.288;28.624;2023-05-16T03:09:35;98770.02;;;13.59;58.12
60337;BME280;46978;50.288;28.624;2023-05-16T03:10:37;98765.70;;;13.58;58.03
60337;BME280;46978;50.288;28.624;2023-05-16T03:11:39;98770.92;;;13.58;58.00
60337;BME280;46978;50.288;28.624;2023-05-16T03:12:40;98774.36;;;13.58;57.85
60337;BME280;46978;50.288;28.624;2023-05-16T03:13:42;98778.73;;;13.58;58.02
60337;BME280;46978;50.288;28.624;2023-05-16T03:14:43;98778.73;;;13.58;58.08
60337;BME280;46978;50.288;28.624;2023-05-16T03:15:45;98777.91;;;13.57;58.15
60337;BME280;46978;50.288;28.624;2023-05-16T03:16:47;98770.92;;;13.58;58.12
60337;BME280;46978;50.288;28.624;2023-05-16T03:17:49;98777.03;;;13.57;58.15
60337;BME280;46978;50.288;28.624;2023-05-16T03:18:50;98779.64;;;13.57;57.95
60337;BME280;46978;50.288;28.624;2023-05-16T03:19:53;98783.17;;;13.56;57.73
60337;BME280;46978;50.288;28.624;2023-05-16T03:20:54;98781.47;;;13.55;57.98
60337;BME280;46978;50.288;28.624;2023-05-16T03:21:56;98791.00;;;13.56;57.98
60337;BME280;46978;50.288;28.624;2023-05-16T03:22:58;98791.05;;;13.54;58.05
60337;BME280;46978;50.288;28.624;2023-05-16T03:24:03;98791.05;;;13.54;58.12
60337;BME280;46978;50.288;28.624;2023-05-16T03:25:05;98790.19;;;13.54;58.44
60337;BME280;46978;50.288;28.624;2023-05-16T03:26:08;98793.72;;;13.53;58.28
60337;BME280;46978;50.288;28.624;2023-05-16T03:27:10;98794.63;;;13.52;58.38
60337;BME280;46978;50.288;28.624;2023-05-16T03:28:11;98793.78;;;13.51;58.71
60337;BME280;46978;50.288;28.624;2023-05-16T03:29:13;98795.52;;;13.51;58.68
60337;BME280;46978;50.288;28.624;2023-05-16T03:30:15;98795.52;;;13.51;58.65
60337;BME280;46978;50.288;28.624;2023-05-16T03:31:16;98793.78;;;13.51;59.11
60337;BME280;46978;50.288;28.624;2023-05-16T03:32:18;98798.13;;;13.51;59.08
60337;BME280;46978;50.288;28.624;2023-05-16T03:33:19;98799.89;;;13.50;59.05
60337;BME280;46978;50.288;28.624;2023-05-16T03:34:21;98799.89;;;13.50;59.84
60337;BME280;46978;50.288;28.624;2023-05-16T03:35:23;98798.19;;;13.49;60.80
60337;BME280;46978;50.288;28.624;2023-05-16T03:36:26;98798.30;;;13.46;60.87
60337;BME280;46978;50.288;28.624;2023-05-16T03:37:28;98793.96;;;13.47;61.37
60337;BME280;46978;50.288;28.624;2023-05-16T03:38:29;98794.08;;;13.43;62.53
60337;BME280;46978;50.288;28.624;2023-05-16T03:39:31;98791.59;;;13.40;62.27
60337;BME280;46978;50.288;28.624;2023-05-16T03:40:33;98793.39;;;13.38;62.55
60337;BME280;46978;50.288;28.624;2023-05-16T03:41:34;98787.40;;;13.36;62.56
60337;BME280;46978;50.288;28.624;2023-05-16T03:42:36;98789.23;;;13.34;63.09
60337;BME280;46978;50.288;28.624;2023-05-16T03:43:37;98793.66;;;13.31;63.37
60337;BME280;46978;50.288;28.624;2023-05-16T03:44:39;98790.27;;;13.28;63.15
60337;BME280;46978;50.288;28.624;2023-05-16T03:45:40;98791.23;;;13.26;63.18
60337;BME280;46978;50.288;28.624;2023-05-16T03:46:42;98796.44;;;13.26;63.03
60337;BME280;46978;50.288;28.624;2023-05-16T03:47:44;98789.61;;;13.23;63.19
60337;BME280;46978;50.288;28.624;2023-05-16T03:48:45;98785.23;;;13.24;63.98
60337;BME280;46978;50.288;28.624;2023-05-16T03:49:47;98791.34;;;13.23;63.51
60337;BME280;46978;50.288;28.624;2023-05-16T03:50:49;98787.95;;;13.21;63.47
60337;BME280;46978;50.288;28.624;2023-05-16T03:51:50;98791.41;;;13.21;63.32
60337;BME280;46978;50.288;28.624;2023-05-16T03:52:52;98784.52;;;13.20;63.21
60337;BME280;46978;50.288;28.624;2023-05-16T03:53:53;98780.20;;;13.19;63.32
60337;BME280;46978;50.288;28.624;2023-05-16T03:54:55;98782.80;;;13.19;63.52
60337;BME280;46978;50.288;28.624;2023-05-16T03:55:57;98786.30;;;13.18;63.47
60337;BME280;46978;50.288;28.624;2023-05-16T03:56:58;98780.26;;;13.18;63.50
60337;BME280;46978;50.288;28.624;2023-05-16T03:58:00;98782.86;;;13.18;63.27
60337;BME280;46978;50.288;28.624;2023-05-16T03:59:02;98780.26;;;13.18;63.63
60337;BME280;46978;50.288;28.624;2023-05-16T04:00:04;98775.05;;;13.18;63.33
60337;BME280;46978;50.288;28.624;2023-05-16T04:01:06;98779.30;;;13.20;63.79
60337;BME280;46978;50.288;28.624;2023-05-16T04:02:08;98754.09;;;13.21;63.32
60337;BME280;46978;50.288;28.624;2023-05-16T04:03:10;98780.08;;;13.22;63.12
60337;BME280;46978;50.288;28.624;2023-05-16T04:04:11;98780.02;;;13.24;63.56
60337;BME280;46978;50.288;28.624;2023-05-16T04:05:13;98781.79;;;13.23;63.45
60337;BME280;46978;50.288;28.624;2023-05-16T04:06:15;98776.52;;;13.25;63.12
60337;BME280;46978;50.288;28.624;2023-05-16T04:07:16;98779.91;;;13.27;63.64
60337;BME280;46978;50.288;28.624;2023-05-16T04:08:18;98778.14;;;13.27;63.04
60337;BME280;46978;50.288;28.624;2023-05-16T04:09:19;98778.08;;;13.29;63.24
60337;BME280;46978;50.288;28.624;2023-05-16T04:10:21;98778.02;;;13.31;62.99
60337;BME280;46978;50.288;28.624;2023-05-16T04:11:23;98778.89;;;13.31;63.12
60337;BME280;46978;50.288;28.624;2023-05-16T04:12:24;98780.56;;;13.32;62.65
60337;BME280;46978;50.288;28.624;2023-05-16T04:13:26;98778.83;;;13.33;62.55
60337;BME280;46978;50.288;28.624;2023-05-16T04:14:27;98783.14;;;13.34;62.60
60337;BME280;46978;50.288;28.624;2023-05-16T04:15:29;98786.63;;;13.34;62.46
60337;BME280;46978;50.288;28.624;2023-05-16T04:16:31;98783.09;;;13.35;62.39
60337;BME280;46978;50.288;28.624;2023-05-16T04:17:33;98790.01;;;13.36;63.16
60337;BME280;46978;50.288;28.624;2023-05-16T04:18:35;98792.61;;;13.36;63.51
60337;BME280;46978;50.288;28.624;2023-05-16T04:19:36;98790.01;;;13.36;63.68
60337;BME280;46978;50.288;28.624;2023-05-16T04:20:38;98784.80;;;13.36;64.32
60337;BME280;46978;50.288;28.624;2023-05-16T04:21:39;98791.77;;;13.36;63.95
60337;BME280;46978;50.288;28.624;2023-05-16T04:22:41;98793.52;;;13.35;64.36
60337;BME280;46978;50.288;28.624;2023-05-16T04:23:43;98789.23;;;13.34;64.47
60337;BME280;46978;50.288;28.624;2023-05-16T04:24:44;98790.06;;;13.35;65.09
60337;BME280;46978;50.288;28.624;2023-05-16T04:25:46;98790.91;;;13.35;64.76
60337;BME280;46978;50.288;28.624;2023-05-16T04:26:47;98802.25;;;13.34;64.69
60337;BME280;46978;50.288;28.624;2023-05-16T04:27:49;98791.92;;;13.31;64.99
60337;BME280;46978;50.288;28.624;2023-05-16T04:28:50;98792.81;;;13.30;65.09
60337;BME280;46978;50.288;28.624;2023-05-16T04:29:52;98794.58;;;13.30;65.07
60337;BME280;46978;50.288;28.624;2023-05-16T04:30:53;98790.27;;;13.28;65.43
60337;BME280;46978;50.288;28.624;2023-05-16T04:31:55;98789.49;;;13.26;65.18
60337;BME280;46978;50.288;28.624;2023-05-16T04:32:57;98796.44;;;13.26;64.92
60337;BME280;46978;50.288;28.624;2023-05-16T04:33:58;98794.77;;;13.25;64.65
60337;BME280;46978;50.288;28.624;2023-05-16T04:35:00;98784.39;;;13.23;64.39
60337;BME280;46978;50.288;28.624;2023-05-16T04:36:02;98780.02;;;13.24;64.13
60337;BME280;46978;50.288;28.624;2023-05-16T04:37:04;98783.41;;;13.26;64.19
60337;BME280;46978;50.288;28.624;2023-05-16T04:38:05;98787.72;;;13.27;64.36
60337;BME280;46978;50.288;28.624;2023-05-16T04:39:07;98787.72;;;13.27;64.29
60337;BME280;46978;50.288;28.624;2023-05-16T04:40:10;98786.83;;;13.28;64.57
60337;BME280;46978;50.288;28.624;2023-05-16T04:41:12;98776.34;;;13.30;64.67
60337;BME280;46978;50.288;28.624;2023-05-16T04:42:14;98786.70;;;13.31;64.74
60337;BME280;46978;50.288;28.624;2023-05-16T04:43:15;98779.70;;;13.33;64.79
60337;BME280;46978;50.288;28.624;2023-05-16T04:44:17;98780.42;;;13.37;64.49
60337;BME280;46978;50.288;28.624;2023-05-16T04:45:18;98775.09;;;13.40;64.50
60337;BME280;46978;50.288;28.624;2023-05-16T04:46:20;98774.91;;;13.44;64.22
60337;BME280;46978;50.288;28.624;2023-05-16T04:47:22;98778.20;;;13.50;64.43
60337;BME280;46978;50.288;28.624;2023-05-16T04:48:23;98776.31;;;13.53;64.37
60337;BME280;46978;50.288;28.624;2023-05-16T04:49:25;98771.70;;;13.60;64.25
60337;BME280;46978;50.288;28.624;2023-05-16T04:50:27;98780.20;;;13.65;63.26
60337;BME280;46978;50.288;28.624;2023-05-16T04:51:28;98779.14;;;13.69;63.22
60337;BME280;46978;50.288;28.624;2023-05-16T04:52:30;98781.51;;;13.75;62.86
60337;BME280;46978;50.288;28.624;2023-05-16T04:53:32;98781.26;;;13.81;62.38
60337;BME280;46978;50.288;28.624;2023-05-16T04:54:34;98783.74;;;13.85;61.96
60337;BME280;46978;50.288;28.624;2023-05-16T04:55:36;98785.27;;;13.90;61.93
60337;BME280;46978;50.288;28.624;2023-05-16T04:56:37;98789.45;;;13.94;61.55
60337;BME280;46978;50.288;28.624;2023-05-16T04:57:39;98777.05;;;13.99;61.65
60337;BME280;46978;50.288;28.624;2023-05-16T04:58:41;98773.29;;;14.07;61.65
60337;BME280;46978;50.288;28.624;2023-05-16T04:59:42;98777.31;;;14.14;61.15
60337;BME280;46978;50.288;28.624;2023-05-16T05:00:44;98777.80;;;14.24;60.71
60337;BME280;46978;50.288;28.624;2023-05-16T05:01:46;98776.60;;;14.31;60.24
60337;BME280;46978;50.288;28.624;2023-05-16T05:02:47;98774.59;;;14.38;59.92
60337;BME280;46978;50.288;28.624;2023-05-16T05:03:49;98770.78;;;14.45;59.77
60337;BME280;46978;50.288;28.624;2023-05-16T05:04:51;98775.61;;;14.54;59.62
60337;BME280;46978;50.288;28.624;2023-05-16T05:05:52;98773.59;;;14.61;58.40
60337;BME280;46978;50.288;28.624;2023-05-16T05:06:54;98769.88;;;14.66;58.24
60337;BME280;46978;50.288;28.624;2023-05-16T05:07:57;98771.24;;;14.75;58.16
60337;BME280;46978;50.288;28.624;2023-05-16T05:08:59;98766.51;;;14.83;57.82
60337;BME280;46978;50.288;28.624;2023-05-16T05:10:00;98774.84;;;14.92;57.55
60337;BME280;46978;50.288;28.624;2023-05-16T05:11:02;98771.94;;;14.98;57.45
60337;BME280;46978;50.288;28.624;2023-05-16T05:12:04;98773.37;;;15.05;57.38
60337;BME280;46978;50.288;28.624;2023-05-16T05:13:06;98773.09;;;15.11;56.88
60337;BME280;46978;50.288;28.624;2023-05-16T05:14:08;98775.42;;;15.17;56.20
60337;BME280;46978;50.288;28.624;2023-05-16T05:15:09;98778.66;;;15.22;55.76
60337;BME280;46978;50.288;28.624;2023-05-16T05:16:11;98776.77;;;15.26;55.85
60337;BME280;46978;50.288;28.624;2023-05-16T05:17:13;98773.06;;;15.30;55.78
60337;BME280;46978;50.288;28.624;2023-05-16T05:18:14;98778.08;;;15.35;55.81
60337;BME280;46978;50.288;28.624;2023-05-16T05:19:16;98785.63;;;15.41;55.57
60337;BME280;46978;50.288;28.624;2023-05-16T05:20:18;98779.49;;;15.42;55.04
60337;BME280;46978;50.288;28.624;2023-05-16T05:21:19;98788.90;;;15.46;54.86
60337;BME280;46978;50.288;28.624;2023-05-16T05:22:21;98788.83;;;15.48;54.70
60337;BME280;46978;50.288;28.624;2023-05-16T05:23:23;98784.22;;;15.53;54.80
60337;BME280;46978;50.288;28.624;2023-05-16T05:24:24;98791.69;;;15.60;54.64
60337;BME280;46978;50.288;28.624;2023-05-16T05:25:26;98788.93;;;15.64;54.50
60337;BME280;46978;50.288;28.624;2023-05-16T05:26:27;98783.55;;;15.67;54.34
60337;BME280;46978;50.288;28.624;2023-05-16T05:27:29;98781.63;;;15.70;54.12
60337;BME280;46978;50.288;28.624;2023-05-16T05:28:31;98775.26;;;15.76;53.86
60337;BME280;46978;50.288;28.624;2023-05-16T05:29:32;98773.36;;;15.80;53.67
60337;BME280;46978;50.288;28.624;2023-05-16T05:30:34;98774.84;;;15.85;53.49
60337;BME280;46978;50.288;28.624;2023-05-16T05:31:35;98774.61;;;15.90;53.85
60337;BME280;46978;50.288;28.624;2023-05-16T05:32:37;98765.59;;;15.95;54.13
60337;BME280;46978;50.288;28.624;2023-05-16T05:33:38;98774.84;;;16.03;53.67
60337;BME280;46978;50.288;28.624;2023-05-16T05:34:40;98772.14;;;16.04;52.74
60337;BME280;46978;50.288;28.624;2023-05-16T05:35:42;98778.06;;;16.08;52.51